createdAt,value
2022-10-24T00:01:25.960Z,2.67
2022-10-24T00:03:53.548Z,2.70
2022-10-24T00:06:21.882Z,2.80
2022-10-24T00:08:50.066Z,2.57
2022-10-24T00:11:27.998Z,2.70
2022-10-24T00:13:57.278Z,2.63
2022-10-24T00:16:25.693Z,2.67
2022-10-24T00:18:53.410Z,2.83
2022-10-24T00:21:20.887Z,2.70
2022-10-24T00:23:48.524Z,2.70
2022-10-24T00:26:17.003Z,2.67
2022-10-24T00:28:44.452Z,2.70
2022-10-24T00:31:19.027Z,2.70
2022-10-24T00:33:46.779Z,2.60
2022-10-24T00:36:21.986Z,2.70
2022-10-24T00:38:51.683Z,2.60
2022-10-24T00:41:42.778Z,2.63
2022-10-24T00:44:33.062Z,2.63
2022-10-24T00:47:07.587Z,2.60
2022-10-24T00:49:51.607Z,2.70
2022-10-24T00:52:30.486Z,2.57
2022-10-24T00:55:01.516Z,2.70
2022-10-24T00:57:40.319Z,2.70
2022-10-24T01:00:14.573Z,2.90
2022-10-24T01:02:43.809Z,2.77
2022-10-24T01:05:12.693Z,2.77
2022-10-24T01:08:26.631Z,2.77
2022-10-24T01:11:30.093Z,2.77
2022-10-24T01:14:41.859Z,2.70
2022-10-24T01:17:37.068Z,2.73
2022-10-24T01:20:37.451Z,3.13
2022-10-24T01:23:44.900Z,3.10
2022-10-24T01:26:51.040Z,3.40
2022-10-24T01:30:16.207Z,3.43
2022-10-24T01:33:07.424Z,3.23
2022-10-24T01:35:50.001Z,3.50
2022-10-24T01:38:41.648Z,3.80
2022-10-24T01:41:21.124Z,3.50
2022-10-24T01:44:02.228Z,3.23
2022-10-24T01:46:42.890Z,3.50
2022-10-24T01:49:23.174Z,3.30
2022-10-24T01:52:00.185Z,3.30
2022-10-24T01:54:29.436Z,3.23
2022-10-24T01:56:56.563Z,3.07
2022-10-24T01:59:29.508Z,2.83
2022-10-24T02:02:15.328Z,2.97
2022-10-24T02:05:01.279Z,2.90
2022-10-24T02:07:33.456Z,2.90
2022-10-24T02:10:19.704Z,2.83
2022-10-24T02:12:57.842Z,2.87
2022-10-24T02:15:32.854Z,3.07
2022-10-24T02:18:01.149Z,2.77
2022-10-24T02:20:43.671Z,2.80
2022-10-24T02:23:33.200Z,2.90
2022-10-24T02:26:05.625Z,2.80
2022-10-24T02:28:45.452Z,2.80
2022-10-24T02:31:21.684Z,2.77
2022-10-24T02:33:52.028Z,2.77
2022-10-24T02:36:26.125Z,2.80
2022-10-24T02:38:56.737Z,2.80
2022-10-24T02:41:31.533Z,2.83
2022-10-24T02:44:02.338Z,2.70
2022-10-24T02:46:32.290Z,2.70
2022-10-24T02:49:03.182Z,2.90
2022-10-24T02:51:38.195Z,2.70
2022-10-24T02:54:07.737Z,2.90
2022-10-24T02:56:40.397Z,2.80
2022-10-24T03:01:34.576Z,2.87
2022-10-24T03:04:01.614Z,2.80
2022-10-24T03:06:28.617Z,2.83
2022-10-24T03:08:56.086Z,2.77
2022-10-24T03:11:23.258Z,2.97
2022-10-24T03:13:51.173Z,2.83
2022-10-24T03:16:19.215Z,2.83
2022-10-24T03:18:46.633Z,2.77
2022-10-24T03:21:13.582Z,2.90
2022-10-24T03:23:41.345Z,3.00
2022-10-24T03:26:08.849Z,3.07
2022-10-24T03:28:35.965Z,3.10
2022-10-24T03:31:03.749Z,3.20
2022-10-24T03:33:30.981Z,3.37
2022-10-24T03:35:58.427Z,3.60
2022-10-24T03:38:25.914Z,3.87
2022-10-24T03:40:53.354Z,4.00
2022-10-24T03:43:20.513Z,4.00
2022-10-24T03:45:47.454Z,3.87
2022-10-24T03:48:15.257Z,4.10
2022-10-24T03:50:42.247Z,4.03
2022-10-24T03:53:09.999Z,3.93
2022-10-24T03:55:37.448Z,3.90
2022-10-24T03:58:04.506Z,3.80
2022-10-24T04:00:34.272Z,3.63
2022-10-24T04:03:01.698Z,3.53
2022-10-24T04:05:29.192Z,3.87
2022-10-24T04:07:56.334Z,3.53
2022-10-24T04:10:23.867Z,3.63
2022-10-24T04:12:51.263Z,3.87
2022-10-24T04:15:18.299Z,3.73
2022-10-24T04:17:45.498Z,3.77
2022-10-24T04:20:13.155Z,3.93
2022-10-24T04:22:40.189Z,4.03
2022-10-24T04:25:07.396Z,3.87
2022-10-24T04:27:36.427Z,3.77
2022-10-24T04:30:03.979Z,4.07
2022-10-24T04:32:30.997Z,3.90
2022-10-24T04:34:58.363Z,3.70
2022-10-24T04:37:25.376Z,3.77
2022-10-24T04:39:54.659Z,3.87
2022-10-24T04:42:23.431Z,3.97
2022-10-24T04:44:50.819Z,4.27
2022-10-24T04:49:50.633Z,4.10
2022-10-24T04:52:18.055Z,4.30
2022-10-24T04:54:45.064Z,4.10
2022-10-24T04:57:12.495Z,4.37
2022-10-24T04:59:39.520Z,4.30
2022-10-24T05:02:06.996Z,4.40
2022-10-24T05:04:34.100Z,4.80
2022-10-24T05:07:01.613Z,4.70
2022-10-24T05:09:29.132Z,4.70
2022-10-24T05:11:57.184Z,4.70
2022-10-24T05:14:24.941Z,4.97
2022-10-24T05:16:52.458Z,4.83
2022-10-24T05:19:19.775Z,4.90
2022-10-24T05:21:46.823Z,4.93
2022-10-24T05:24:14.344Z,4.97
2022-10-24T05:26:41.724Z,4.70
2022-10-24T05:29:08.701Z,4.70
2022-10-24T05:31:36.170Z,4.47
2022-10-24T05:34:03.165Z,4.37
2022-10-24T05:36:30.547Z,4.23
2022-10-24T05:38:58.049Z,4.87
2022-10-24T05:41:24.987Z,4.47
2022-10-24T05:43:52.055Z,4.57
2022-10-24T05:46:19.041Z,4.43
2022-10-24T05:48:46.049Z,4.40
2022-10-24T05:51:13.417Z,5.10
2022-10-24T05:53:40.371Z,4.50
2022-10-24T05:56:08.021Z,4.70
2022-10-24T05:58:35.253Z,5.20
2022-10-24T06:01:02.530Z,4.80
2022-10-24T06:03:29.577Z,4.83
2022-10-24T06:05:56.958Z,5.20
2022-10-24T06:08:24.490Z,4.67
2022-10-24T06:10:53.521Z,5.00
2022-10-24T06:13:20.902Z,4.80
2022-10-24T06:15:48.293Z,4.90
2022-10-24T06:18:15.266Z,4.87
2022-10-24T06:20:42.207Z,4.57
2022-10-24T06:23:09.706Z,4.67
2022-10-24T06:25:37.064Z,5.30
2022-10-24T06:28:04.300Z,4.97
2022-10-24T06:30:31.442Z,4.30
2022-10-24T06:32:58.854Z,4.57
2022-10-24T06:35:26.251Z,4.63
2022-10-24T06:37:53.500Z,4.80
2022-10-24T06:40:21.074Z,4.23
2022-10-24T06:42:48.100Z,4.50
2022-10-24T06:45:16.030Z,4.20
2022-10-24T06:47:43.727Z,3.97
2022-10-24T06:50:11.414Z,3.80
2022-10-24T06:52:38.911Z,3.87
2022-10-24T06:55:06.397Z,3.63
2022-10-24T06:57:33.839Z,3.53
2022-10-24T07:00:00.887Z,3.50
2022-10-24T07:02:27.971Z,3.37
2022-10-24T07:04:57.379Z,3.20
2022-10-24T07:07:25.015Z,3.43
2022-10-24T07:09:57.715Z,3.40
2022-10-24T07:12:25.790Z,3.57
2022-10-24T07:14:53.004Z,3.47
2022-10-24T07:17:20.659Z,3.43
2022-10-24T07:19:54.062Z,3.43
2022-10-24T07:22:21.281Z,3.30
2022-10-24T07:24:55.017Z,3.30
2022-10-24T07:27:23.395Z,3.20
2022-10-24T07:29:51.468Z,3.37
2022-10-24T07:32:20.162Z,3.20
2022-10-24T07:34:47.737Z,3.20
2022-10-24T07:37:19.502Z,2.97
2022-10-24T07:39:47.061Z,2.83
2022-10-24T07:42:15.617Z,2.87
2022-10-24T07:44:42.999Z,2.73
2022-10-24T07:47:11.292Z,2.87
2022-10-24T07:49:38.714Z,3.20
2022-10-24T07:52:06.384Z,3.13
2022-10-24T07:54:36.421Z,3.20
2022-10-24T07:57:05.171Z,3.30
2022-10-24T07:59:41.854Z,3.50
2022-10-24T08:03:46.094Z,2.90
2022-10-24T08:06:18.994Z,3.10
2022-10-24T08:08:46.717Z,3.07
2022-10-24T08:11:26.651Z,3.20
2022-10-24T08:13:57.170Z,3.40
2022-10-24T08:16:26.147Z,3.33
2022-10-24T08:18:57.244Z,2.73
2022-10-24T08:21:25.476Z,2.93
2022-10-24T08:23:55.748Z,3.13
2022-10-24T08:26:25.846Z,2.93
2022-10-24T08:28:55.074Z,3.33
2022-10-24T08:31:25.141Z,3.27
2022-10-24T08:33:55.448Z,3.27
2022-10-24T08:36:34.741Z,3.33
2022-10-24T08:39:02.305Z,3.63
2022-10-24T08:41:32.963Z,3.43
2022-10-24T08:44:04.885Z,3.50
2022-10-24T08:47:09.750Z,3.47
2022-10-24T08:49:52.322Z,3.57
2022-10-24T08:52:40.431Z,3.30
2022-10-24T08:55:44.456Z,3.53
2022-10-24T08:58:27.945Z,3.30
2022-10-24T09:01:01.816Z,3.13
2022-10-24T09:03:56.063Z,3.10
2022-10-24T09:06:31.938Z,3.07
2022-10-24T09:09:15.537Z,3.33
2022-10-24T09:12:15.314Z,3.50
2022-10-24T09:14:47.308Z,3.60
2022-10-24T09:17:32.236Z,3.57
2022-10-24T09:20:29.238Z,3.50
2022-10-24T09:23:03.807Z,3.90
2022-10-24T09:25:36.085Z,3.97
2022-10-24T09:28:05.853Z,3.97
2022-10-24T09:30:36.321Z,4.00
2022-10-24T09:33:30.916Z,3.93
2022-10-24T09:36:03.614Z,4.33
2022-10-24T09:38:39.207Z,3.90
2022-10-24T09:41:30.306Z,3.93
2022-10-24T09:44:01.373Z,4.20
2022-10-24T09:46:45.294Z,4.17
2022-10-24T09:49:27.454Z,4.07
2022-10-24T09:52:18.815Z,4.03
2022-10-24T09:54:47.388Z,4.13
2022-10-24T10:00:01.468Z,4.57
2022-10-24T10:02:34.828Z,4.20
2022-10-24T10:05:02.226Z,4.20
2022-10-24T10:07:43.343Z,4.43
2022-10-24T10:10:32.167Z,4.67
2022-10-24T10:13:20.043Z,4.30
2022-10-24T10:16:02.067Z,4.60
2022-10-24T10:18:39.534Z,4.40
2022-10-24T10:21:21.317Z,4.47
2022-10-24T10:23:56.928Z,4.30
2022-10-24T10:26:46.239Z,4.30
2022-10-24T10:29:24.507Z,4.60
2022-10-24T10:32:15.651Z,4.90
2022-10-24T10:35:15.899Z,5.10
2022-10-24T10:38:03.795Z,4.80
2022-10-24T10:40:46.495Z,4.47
2022-10-24T10:43:47.108Z,4.30
2022-10-24T10:46:42.316Z,3.93
2022-10-24T10:49:25.343Z,4.20
2022-10-24T10:52:11.201Z,4.07
2022-10-24T10:55:27.444Z,3.90
2022-10-24T10:58:03.820Z,4.30
2022-10-24T11:00:58.957Z,4.73
2022-10-24T11:03:56.372Z,4.70
2022-10-24T11:07:04.002Z,4.70
2022-10-24T11:09:54.121Z,4.70
2022-10-24T11:12:42.552Z,5.00
2022-10-24T11:15:31.567Z,4.77
2022-10-24T11:18:21.168Z,4.80
2022-10-24T11:21:06.833Z,5.00
2022-10-24T11:23:52.324Z,5.17
2022-10-24T11:26:48.449Z,5.17
2022-10-24T11:29:47.580Z,5.33
2022-10-24T11:32:44.690Z,5.23
2022-10-24T11:35:34.349Z,5.50
2022-10-24T11:38:21.695Z,4.83
2022-10-24T11:40:58.641Z,5.20
2022-10-24T11:43:41.185Z,5.73
2022-10-24T11:46:22.484Z,5.57
2022-10-24T11:49:22.340Z,5.70
2022-10-24T11:52:01.730Z,5.07
2022-10-24T11:54:45.106Z,5.87
2022-10-24T11:57:22.007Z,5.30
2022-10-24T11:59:53.761Z,5.87
2022-10-24T12:03:02.772Z,5.73
2022-10-24T12:05:49.487Z,6.40
2022-10-24T12:08:57.869Z,5.70
2022-10-24T12:12:23.874Z,5.20
2022-10-24T12:15:32.142Z,5.53
2022-10-24T12:18:20.833Z,4.93
2022-10-24T12:20:54.481Z,5.20
2022-10-24T12:23:31.365Z,5.30
2022-10-24T12:26:07.398Z,4.63
2022-10-24T12:28:35.949Z,5.23
2022-10-24T12:31:20.945Z,5.30
2022-10-24T12:34:16.057Z,4.93
2022-10-24T12:37:11.879Z,4.80
2022-10-24T12:39:49.216Z,5.27
2022-10-24T12:42:37.319Z,5.80
2022-10-24T12:45:04.182Z,5.70
2022-10-24T12:47:32.688Z,5.97
2022-10-24T12:50:22.425Z,5.97
2022-10-24T12:53:03.383Z,5.90
2022-10-24T12:55:39.463Z,5.83
2022-10-24T12:58:36.811Z,6.00
2022-10-24T13:01:24.984Z,5.07
2022-10-24T13:04:14.447Z,5.67
2022-10-24T13:07:38.579Z,5.47
2022-10-24T13:10:49.810Z,4.97
2022-10-24T13:14:30.307Z,4.47
2022-10-24T13:17:23.911Z,4.50
2022-10-24T13:20:28.443Z,4.40
2022-10-24T13:23:14.207Z,4.50
2022-10-24T13:25:42.615Z,4.63
2022-10-24T13:28:24.718Z,4.43
2022-10-24T13:30:54.639Z,4.53
2022-10-24T13:33:30.963Z,4.37
2022-10-24T13:36:10.303Z,4.90
2022-10-24T13:39:03.003Z,4.57
2022-10-24T13:41:39.419Z,4.60
2022-10-24T13:44:12.540Z,4.77
2022-10-24T13:46:53.384Z,4.97
2022-10-24T13:49:37.984Z,4.70
2022-10-24T13:52:21.984Z,4.93
2022-10-24T13:54:59.763Z,5.07
2022-10-24T13:57:37.313Z,5.30
2022-10-24T14:00:26.873Z,5.17
2022-10-24T14:02:56.027Z,4.80
2022-10-24T14:05:40.185Z,5.20
2022-10-24T14:08:09.654Z,5.63
2022-10-24T14:10:38.352Z,5.23
2022-10-24T14:13:05.584Z,5.47
2022-10-24T14:15:33.576Z,5.67
2022-10-24T14:18:08.326Z,5.50
2022-10-24T14:20:37.521Z,5.63
2022-10-24T14:23:35.656Z,5.10
2022-10-24T14:26:23.982Z,4.70
2022-10-24T14:28:59.933Z,4.57
2022-10-24T14:31:34.557Z,4.30
2022-10-24T14:34:06.001Z,4.30
2022-10-24T14:36:38.110Z,4.47
2022-10-24T14:39:06.244Z,4.20
2022-10-24T14:41:42.025Z,3.30
2022-10-24T14:44:16.761Z,2.93
2022-10-24T14:46:47.109Z,2.83
2022-10-24T14:49:38.733Z,2.67
2022-10-24T14:52:18.530Z,2.87
2022-10-24T14:55:00.400Z,2.73
2022-10-24T14:57:29.161Z,2.80
2022-10-24T15:00:06.865Z,2.73
2022-10-24T15:02:42.937Z,2.77
2022-10-24T15:05:40.163Z,2.70
2022-10-24T15:08:28.354Z,2.90
2022-10-24T15:11:21.795Z,2.80
2022-10-24T15:14:06.306Z,2.83
2022-10-24T15:16:40.636Z,2.67
2022-10-24T15:19:15.207Z,2.77
2022-10-24T15:21:45.286Z,2.83
2022-10-24T15:24:25.480Z,2.70
2022-10-24T15:26:53.170Z,2.77
2022-10-24T15:29:23.101Z,2.77
2022-10-24T15:31:52.330Z,2.87
2022-10-24T15:34:23.257Z,3.00
2022-10-24T15:36:52.772Z,3.00
2022-10-24T15:39:24.454Z,2.80
2022-10-24T15:41:53.136Z,2.60
2022-10-24T15:44:31.519Z,2.90
2022-10-24T15:46:58.954Z,2.70
2022-10-24T15:49:26.774Z,2.73
2022-10-24T15:51:53.762Z,2.53
2022-10-24T15:54:22.800Z,2.60
2022-10-24T15:56:50.364Z,2.50
2022-10-24T15:59:19.728Z,2.67
2022-10-24T16:02:00.363Z,2.63
2022-10-24T16:04:28.614Z,2.70
2022-10-24T16:06:56.265Z,2.73
2022-10-24T16:09:27.443Z,2.80
2022-10-24T16:11:55.267Z,2.73
2022-10-24T16:14:25.798Z,2.90
2022-10-24T16:16:54.898Z,2.90
2022-10-24T16:19:26.380Z,2.77
2022-10-24T16:22:00.523Z,2.80
2022-10-24T16:24:28.942Z,2.70
2022-10-24T16:26:56.598Z,2.83
2022-10-24T16:29:23.591Z,2.63
2022-10-24T16:31:51.043Z,2.87
2022-10-24T16:34:18.113Z,2.90
2022-10-24T16:36:45.519Z,2.80
2022-10-24T16:39:14.291Z,2.80
2022-10-24T16:41:45.762Z,2.70
2022-10-24T16:44:14.474Z,2.87
2022-10-24T16:46:41.563Z,2.97
2022-10-24T16:49:08.976Z,2.80
2022-10-24T16:51:39.281Z,2.87
2022-10-24T16:54:08.748Z,2.93
2022-10-24T16:56:36.231Z,3.03
2022-10-24T16:59:03.695Z,3.03
2022-10-24T17:01:31.165Z,3.03
2022-10-24T17:03:58.744Z,3.33
2022-10-24T17:06:26.136Z,3.33
2022-10-24T17:08:53.619Z,3.37
2022-10-24T17:11:43.918Z,3.57
2022-10-24T17:16:36.262Z,3.17
2022-10-24T17:19:15.538Z,3.50
2022-10-24T17:21:49.656Z,3.43
2022-10-24T17:24:25.470Z,3.33
2022-10-24T17:26:53.292Z,3.37
2022-10-24T17:29:33.980Z,3.47
2022-10-24T17:32:01.561Z,3.10
2022-10-24T17:34:29.204Z,3.60
2022-10-24T17:37:56.583Z,3.53
2022-10-24T17:40:30.576Z,3.33
2022-10-24T17:42:58.288Z,3.27
2022-10-24T17:45:26.260Z,3.37
2022-10-24T17:47:53.713Z,3.80
2022-10-24T17:50:21.116Z,3.63
2022-10-24T17:52:51.202Z,3.77
2022-10-24T17:55:46.043Z,3.63
2022-10-24T17:58:13.825Z,3.27
2022-10-24T18:00:41.106Z,3.50
2022-10-24T18:03:11.023Z,3.27
2022-10-24T18:05:38.850Z,3.47
2022-10-24T18:08:09.521Z,3.43
2022-10-24T18:10:39.439Z,3.37
2022-10-24T18:13:08.360Z,3.27
2022-10-24T18:15:36.626Z,3.40
2022-10-24T18:18:05.234Z,3.53
2022-10-24T18:20:32.785Z,3.50
2022-10-24T18:23:01.190Z,3.53
2022-10-24T18:25:28.921Z,3.27
2022-10-24T18:27:56.810Z,3.33
2022-10-24T18:30:24.085Z,3.53
2022-10-24T18:32:52.118Z,3.40
2022-10-24T18:35:22.184Z,3.30
2022-10-24T18:37:50.299Z,3.33
2022-10-24T18:40:17.801Z,3.13
2022-10-24T18:43:05.167Z,3.27
2022-10-24T18:45:33.245Z,3.40
2022-10-24T18:48:00.986Z,3.30
2022-10-24T18:50:28.426Z,3.47
2022-10-24T18:53:28.666Z,3.10
2022-10-24T18:55:56.286Z,3.20
2022-10-24T18:58:23.354Z,3.00
2022-10-24T19:00:54.508Z,2.90
2022-10-24T19:03:35.540Z,3.20
2022-10-24T19:06:26.162Z,3.10
2022-10-24T19:08:53.959Z,2.90
2022-10-24T19:11:23.102Z,3.13
2022-10-24T19:13:50.307Z,3.00
2022-10-24T19:16:28.607Z,2.97
2022-10-24T19:19:01.610Z,3.17
2022-10-24T19:21:28.818Z,3.07
2022-10-24T19:23:56.226Z,3.03
2022-10-24T19:26:23.386Z,3.20
2022-10-24T19:28:51.192Z,3.03
2022-10-24T19:31:18.983Z,3.20
2022-10-24T19:33:46.019Z,3.03
2022-10-24T19:36:19.164Z,3.07
2022-10-24T19:38:46.805Z,2.97
2022-10-24T19:41:14.326Z,2.97
2022-10-24T19:43:41.823Z,3.17
2022-10-24T19:46:19.828Z,3.10
2022-10-24T19:48:52.893Z,3.13
2022-10-24T19:51:21.015Z,3.60
2022-10-24T19:53:51.616Z,3.10
2022-10-24T19:56:26.679Z,3.13
2022-10-24T19:58:55.727Z,2.93
2022-10-24T20:01:29.475Z,3.00
2022-10-24T20:03:57.449Z,3.07
2022-10-24T20:06:28.676Z,2.93
2022-10-24T20:08:55.721Z,2.90
2022-10-24T20:11:23.868Z,2.87
2022-10-24T20:13:51.403Z,3.10
2022-10-24T20:16:19.368Z,3.10
2022-10-24T20:18:47.374Z,3.13
2022-10-24T20:21:18.375Z,2.93
2022-10-24T20:23:49.032Z,3.10
2022-10-24T20:26:23.347Z,3.10
2022-10-24T20:28:54.991Z,3.00
2022-10-24T20:31:38.289Z,3.20
2022-10-24T20:34:10.686Z,3.20
2022-10-24T20:36:44.650Z,3.00
2022-10-24T20:39:13.469Z,3.00
2022-10-24T20:41:42.104Z,3.03
2022-10-24T20:44:11.256Z,2.90
2022-10-24T20:46:38.953Z,2.87
2022-10-24T20:49:07.125Z,3.03
2022-10-24T20:51:34.603Z,3.27
2022-10-24T20:54:02.105Z,3.30
2022-10-24T20:56:29.600Z,3.10
2022-10-24T20:58:56.688Z,3.20
2022-10-24T21:01:28.169Z,2.80
2022-10-24T21:03:58.477Z,2.90
2022-10-24T21:06:31.045Z,2.97
2022-10-24T21:11:35.797Z,2.87
2022-10-24T21:14:12.282Z,3.07
2022-10-24T21:16:39.771Z,2.90
2022-10-24T21:19:06.765Z,2.93
2022-10-24T21:21:33.750Z,3.00
2022-10-24T21:24:05.843Z,2.93
2022-10-24T21:26:38.266Z,2.80
2022-10-24T21:29:20.970Z,2.93
2022-10-24T21:31:55.222Z,2.77
2022-10-24T21:34:23.986Z,2.93
2022-10-24T21:36:51.598Z,2.80
2022-10-24T21:39:19.329Z,3.10
2022-10-24T21:41:46.893Z,2.83
2022-10-24T21:44:15.060Z,2.77
2022-10-24T21:46:42.461Z,3.00
2022-10-24T21:49:10.724Z,3.00
2022-10-24T21:51:40.986Z,2.80
2022-10-24T21:54:24.141Z,2.90
2022-10-24T21:56:51.750Z,2.93
2022-10-24T21:59:21.251Z,3.03
2022-10-24T22:01:51.415Z,2.90
2022-10-24T22:04:18.871Z,2.77
2022-10-24T22:06:46.603Z,3.00
2022-10-24T22:09:20.519Z,3.00
2022-10-24T22:11:48.550Z,3.20
2022-10-24T22:14:17.643Z,3.00
2022-10-24T22:16:45.253Z,2.87
2022-10-24T22:19:13.986Z,3.17
2022-10-24T22:21:48.898Z,2.90
2022-10-24T22:24:25.390Z,2.87
2022-10-24T22:26:53.518Z,2.80
2022-10-24T22:29:24.083Z,2.73
2022-10-24T22:31:53.559Z,2.87
2022-10-24T22:34:25.080Z,2.90
2022-10-24T22:37:32.519Z,2.93
2022-10-24T22:40:00.083Z,2.73
2022-10-24T22:42:27.659Z,3.00
2022-10-24T22:44:55.968Z,2.90
2022-10-24T22:48:04.273Z,2.87
2022-10-24T22:51:06.872Z,2.90
2022-10-24T22:53:35.170Z,2.97
2022-10-24T22:56:27.640Z,2.73
2022-10-24T22:58:55.367Z,2.90
2022-10-24T23:02:03.217Z,2.80
2022-10-24T23:04:46.843Z,2.90
2022-10-24T23:07:34.389Z,2.70
2022-10-24T23:10:01.388Z,2.93
2022-10-24T23:12:29.115Z,2.87
2022-10-24T23:14:56.468Z,2.80
2022-10-24T23:17:30.392Z,2.80
2022-10-24T23:19:58.175Z,2.83
2022-10-24T23:22:32.032Z,2.93
2022-10-24T23:25:02.652Z,3.10
2022-10-24T23:27:34.159Z,2.93
2022-10-24T23:30:06.253Z,2.87
2022-10-24T23:32:37.697Z,2.90
2022-10-24T23:35:06.085Z,2.97
2022-10-24T23:37:43.648Z,3.00
2022-10-24T23:40:29.824Z,2.97
2022-10-24T23:42:57.900Z,2.83
2022-10-24T23:45:35.762Z,2.90
2022-10-24T23:48:52.904Z,2.93
2022-10-24T23:51:35.929Z,2.93
2022-10-24T23:54:03.857Z,3.10
2022-10-24T23:56:31.265Z,2.97
2022-10-24T23:58:58.716Z,3.10
